Terminal Aerodrome Forecast
Issued by NWS Portland, OR

Home | Current Version | Previous Version | Text Only | Print | Product List | Glossary On
Versions: 1 2 3 4 5 6 7 8 9 10 11 12 13 14 15 16 17 18 19 20 21 22 23 24 25 26 27 28 29 30
535
FTUS46 KPQR 172341
TAFEUG
TAF
KEUG 172341Z 1800/1824 18007KT 6SM -RA OVC060
     FM180300 18012KT 4SM -RA SCT030 OVC050
     FM181200 18015G23KT 5SM -RA SCT015 BKN030 OVC050
     FM181800 18011KT P6SM -SHRA BKN030 OVC050=

USA.gov is the U.S. government's official web portal to all federal, state and local government web resources and services.